Scf Baltica — A8IA5 — position and weather

sailwx.info

Track history (hours):
 
Tides and Currents Weather Stations Pressure Air Temp Water Temp Dewpoint Dewpoint Depression Visibility Wind Speed Wind Dir Waves Ship Positions

Scf Baltica

Last reported at 2015-May-26 23:05 UTC. Time now 2015-May-28 10:10 UTC.
Position N 52°39' E 003°02'.

Length 250 m; draft 9 m.

Type: Ship. MMSI: 636012813.

Date/timePositionNaut miles runAvg speedWind from/ knotsBaromVisibWave heightAir tempDewpointWater temp
2015-May-26 23:05N 52°39' E 003°02'1016.0
2015-May-26 22:28N 52°29' E 003°02'1515.0
2015-May-26 21:28N 52°16' E 003°11'1314.6
2015-May-26 20:33N 52°09' E 003°30'1414.2
2015-May-26 19:33N 52°03' E 003°51'1110.9
2015-May-26 18:33N 51°58' E 004°07'5 4.6
2015-May-26 17:30N 51°55' E 004°13'0 0.0
2015-May-26 16:33N 51°55' E 004°13'0 0.0
2015-May-26 15:27N 51°55' E 004°13'0 0.0
2015-May-26 14:30N 51°55' E 004°13'0 0.0
2015-May-26 13:30N 51°55' E 004°13'0 0.0
2015-May-26 12:33N 51°55' E 004°13'0 0.0
2015-May-26 11:33N 51°55' E 004°13'0 0.0
2015-May-26 10:24N 51°55' E 004°13'0 0.0
2015-May-26 09:30N 51°55' E 004°13'0 0.0
2015-May-26 08:30N 51°55' E 004°13'0 0.0
2015-May-26 07:24N 51°55' E 004°13'0 0.0
2015-May-26 06:27N 51°55' E 004°13'0 0.0
2015-May-26 05:24N 51°55' E 004°13'0 0.0
2015-May-26 04:33N 51°55' E 004°13'0 0.0
2015-May-26 03:33N 51°55' E 004°13'0 0.0
2015-May-26 02:27N 51°55' E 004°13'0 0.0
2015-May-26 01:12N 51°55' E 004°13'0 0.0
2015-May-26 00:21N 51°55' E 004°13'0 0.0
2015-May-25 23:33N 51°55' E 004°13'0 0.0
2015-May-25 22:33N 51°55' E 004°13'0 0.0
2015-May-25 21:33N 51°55' E 004°13'0 0.0
2015-May-25 20:30N 51°55' E 004°13'0 0.0
2015-May-25 19:18N 51°55' E 004°13'0 0.0
2015-May-25 18:27N 51°55' E 004°13'0 0.0
2015-May-25 17:30N 51°55' E 004°13'0 0.0
2015-May-25 16:30N 51°55' E 004°13'0 0.0
2015-May-25 15:30N 51°55' E 004°13'0 0.0
2015-May-25 14:30N 51°55' E 004°13'0 0.0
2015-May-25 13:30N 51°55' E 004°13'0 0.0
2015-May-25 12:33N 51°55' E 004°13'0 0.0
2015-May-25 11:27N 51°55' E 004°13'0 0.0
2015-May-25 10:30N 51°55' E 004°13'0 0.0
2015-May-25 09:30N 51°55' E 004°13'0 0.0
2015-May-25 08:27N 51°55' E 004°13'0 0.0
2015-May-25 07:33N 51°55' E 004°13'0 0.0
2015-May-25 06:33N 51°55' E 004°13'0 0.0
2015-May-25 05:30N 51°55' E 004°13'0 0.0
2015-May-25 04:33N 51°55' E 004°13'0 0.0
2015-May-25 03:33N 51°55' E 004°13'0 0.0
2015-May-25 02:30N 51°55' E 004°13'0 0.0
2015-May-25 01:30N 51°55' E 004°13'0 0.0
2015-May-25 00:33N 51°55' E 004°13'0 0.0
2015-May-24 23:24N 51°55' E 004°13'0 0.0
2015-May-24 22:30N 51°55' E 004°13'0 0.0
2015-May-24 21:30N 51°55' E 004°13'0 0.0
2015-May-24 20:33N 51°55' E 004°13'0 0.0
2015-May-24 19:27N 51°55' E 004°13'0 0.0
2015-May-24 18:33N 51°55' E 004°13'0 0.0
2015-May-24 17:30N 51°55' E 004°13'0 0.0
2015-May-24 16:30N 51°55' E 004°13'0 0.0
2015-May-24 15:33N 51°55' E 004°13'0 0.0
2015-May-24 14:30N 51°55' E 004°13'0 0.0
2015-May-24 13:33N 51°55' E 004°13'0 0.0
2015-May-24 12:30N 51°55' E 004°13'0 0.0
2015-May-24 11:27N 51°55' E 004°13'0 0.0
2015-May-24 10:33N 51°55' E 004°13'0 0.0
2015-May-24 09:33N 51°55' E 004°13'0 0.0
2015-May-24 08:27N 51°55' E 004°13'0 0.0
2015-May-24 07:15N 51°55' E 004°13'0 0.0
2015-May-24 06:33N 51°55' E 004°13'0 0.0
2015-May-24 05:30N 51°55' E 004°13'0 0.0
2015-May-24 04:33N 51°55' E 004°13'0 0.0
2015-May-24 03:27N 51°55' E 004°13'0 0.0
2015-May-24 02:30N 51°55' E 004°13'0 0.0
2015-May-24 01:30N 51°55' E 004°13'0 0.0
2015-May-24 00:27N 51°55' E 004°13'0 0.0
2015-May-23 23:30N 51°55' E 004°13'0 0.0
2015-May-23 22:33N 51°55' E 004°13'2 1.6
2015-May-23 21:33N 51°56' E 004°11'3 3.3
2015-May-23 20:33N 51°58' E 004°07'8 7.8
2015-May-23 19:33N 52°00' E 003°55'5 4.6
2015-May-23 18:33N 51°59' E 003°47'1110.6
2015-May-23 17:31N 51°56' E 003°31'1 1.4
2015-May-23 16:33N 51°55' E 003°29'0 0.2
2015-May-23 15:24N 51°54' E 003°29'0 0.1
2015-May-23 14:27N 51°54' E 003°29'0 0.0
2015-May-23 13:21N 51°54' E 003°29'0 0.0
2015-May-23 12:27N 51°54' E 003°29'0 0.0
2015-May-23 11:30N 51°54' E 003°29'0 0.0
2015-May-23 09:09N 51°54' E 003°29'0 0.1
2015-May-23 06:21N 51°55' E 003°29'0 0.0
2015-May-23 05:21N 51°55' E 003°29'0 0.0
2015-May-23 03:18N 51°55' E 003°29'0 0.2
2015-May-23 02:09N 51°54' E 003°29'0 0.0
2015-May-23 01:12N 51°54' E 003°29'0 0.0
2015-May-23 00:21N 51°54' E 003°29'0 0.0
2015-May-22 23:33N 51°54' E 003°29'0 0.0
2015-May-22 22:30N 51°54' E 003°29'0 0.2
2015-May-22 21:33N 51°55' E 003°29'0 0.1
2015-May-22 20:33N 51°55' E 003°29'0 0.0
2015-May-22 19:27N 51°55' E 003°29'0 0.4
2015-May-22 18:33N 51°54' E 003°29'5 5.4
2015-May-22 17:33N 51°53' E 003°20'1111.2
2015-May-22 16:33N 51°51' E 003°03'1312.5
2015-May-22 15:31N 51°51' E 002°41'1211.2
2015-May-22 14:25N 52°03' E 002°37'1313.2
2015-May-22 13:24N 52°16' E 002°42'1214.2
2015-May-22 12:33N 52°27' E 002°51'10112.5
2015-May-22 04:29N 53°56' E 004°10'1312.8
2015-May-22 03:29N 54°07' E 004°21'1412.7
2015-May-22 02:23N 54°19' E 004°32'1012.5
2015-May-22 01:33N 54°28' E 004°41'23012.0
2015-May-21 06:20N 57°35' E 008°43'3311.6
2015-May-21 03:32N 57°46' E 009°40'1211.5
2015-May-21 02:32N 57°50' E 010°01'1511.5
2015-May-21 01:16N 57°50' E 010°28'811.4
2015-May-21 00:33N 57°50' E 010°43'1111.0
2015-May-20 23:33N 57°42' E 010°58'1212.1
2015-May-20 22:33N 57°34' E 011°15'1211.7
2015-May-20 21:33N 57°24' E 011°28'1212.3
2015-May-20 20:33N 57°13' E 011°35'1212.1
2015-May-20 19:33N 57°02' E 011°43'1212.0
2015-May-20 18:33N 56°50' E 011°51'1211.2
2015-May-20 17:27N 56°38' E 011°46'11411.4
2015-May-20 07:23N 54°48' E 010°50'1110.1
2015-May-20 06:20N 54°38' E 010°55'911.9
2015-May-20 05:33N 54°36' E 011°11'1212.3
2015-May-20 04:33N 54°31' E 011°30'1312.6
2015-May-20 03:33N 54°27' E 011°51'1211.7
2015-May-20 02:32N 54°27' E 012°11'10 9.4
2015-May-20 01:25N 54°37' E 012°18'6 6.0
2015-May-20 00:20N 54°40' E 012°28'6 6.8
2015-May-19 23:31N 54°43' E 012°36'8 7.7
2015-May-19 22:29N 54°48' E 012°48'4711.8
2015-May-19 18:33N 55°05' E 014°03'1211.9
2015-May-19 17:33N 55°13' E 014°18'1211.9
2015-May-19 16:33N 55°23' E 014°30'1211.6
2015-May-19 15:33N 55°30' E 014°47'1212.0
2015-May-19 14:33N 55°35' E 015°05'1511.9
2015-May-19 13:16N 55°40' E 015°31'34611.5
2015-May-18 07:16N 59°37' E 023°21'912.3
2015-May-18 06:33N 59°40' E 023°38'2512.3
2015-May-18 04:33N 59°47' E 024°25'6412.3
2015-May-17 23:19N 60°01' E 026°30'1012.1
2015-May-17 22:29N 60°00' E 026°50'  
Track history (hours):
 
Tides and Currents Weather Stations Pressure Air Temp Water Temp Dewpoint Dewpoint Depression Visibility Wind Speed Wind Dir Waves Ship Positions

Scf Baltica

Last reported at 2015-May-26 23:05 UTC. Time now 2015-May-28 10:10 UTC.
Position N 52°39' E 003°02'.

Length 250 m; draft 9 m.

Type: Ship. MMSI: 636012813.

Date/timePositionNaut miles runAvg speedWind from/ knotsBaromVisibWave heightAir tempDewpointWater temp
2015-May-26 23:05N 52°39' E 003°02'1016.0
2015-May-26 22:28N 52°29' E 003°02'1515.0
2015-May-26 21:28N 52°16' E 003°11'1314.6
2015-May-26 20:33N 52°09' E 003°30'1414.2
2015-May-26 19:33N 52°03' E 003°51'1110.9
2015-May-26 18:33N 51°58' E 004°07'5 4.6
2015-May-26 17:30N 51°55' E 004°13'0 0.0
2015-May-26 16:33N 51°55' E 004°13'0 0.0
2015-May-26 15:27N 51°55' E 004°13'0 0.0
2015-May-26 14:30N 51°55' E 004°13'0 0.0
2015-May-26 13:30N 51°55' E 004°13'0 0.0
2015-May-26 12:33N 51°55' E 004°13'0 0.0
2015-May-26 11:33N 51°55' E 004°13'0 0.0
2015-May-26 10:24N 51°55' E 004°13'0 0.0
2015-May-26 09:30N 51°55' E 004°13'0 0.0
2015-May-26 08:30N 51°55' E 004°13'0 0.0
2015-May-26 07:24N 51°55' E 004°13'0 0.0
2015-May-26 06:27N 51°55' E 004°13'0 0.0
2015-May-26 05:24N 51°55' E 004°13'0 0.0
2015-May-26 04:33N 51°55' E 004°13'0 0.0
2015-May-26 03:33N 51°55' E 004°13'0 0.0
2015-May-26 02:27N 51°55' E 004°13'0 0.0
2015-May-26 01:12N 51°55' E 004°13'0 0.0
2015-May-26 00:21N 51°55' E 004°13'0 0.0
2015-May-25 23:33N 51°55' E 004°13'0 0.0
2015-May-25 22:33N 51°55' E 004°13'0 0.0
2015-May-25 21:33N 51°55' E 004°13'0 0.0
2015-May-25 20:30N 51°55' E 004°13'0 0.0
2015-May-25 19:18N 51°55' E 004°13'0 0.0
2015-May-25 18:27N 51°55' E 004°13'0 0.0
2015-May-25 17:30N 51°55' E 004°13'0 0.0
2015-May-25 16:30N 51°55' E 004°13'0 0.0
2015-May-25 15:30N 51°55' E 004°13'0 0.0
2015-May-25 14:30N 51°55' E 004°13'0 0.0
2015-May-25 13:30N 51°55' E 004°13'0 0.0
2015-May-25 12:33N 51°55' E 004°13'0 0.0
2015-May-25 11:27N 51°55' E 004°13'0 0.0
2015-May-25 10:30N 51°55' E 004°13'0 0.0
2015-May-25 09:30N 51°55' E 004°13'0 0.0
2015-May-25 08:27N 51°55' E 004°13'0 0.0
2015-May-25 07:33N 51°55' E 004°13'0 0.0
2015-May-25 06:33N 51°55' E 004°13'0 0.0
2015-May-25 05:30N 51°55' E 004°13'0 0.0
2015-May-25 04:33N 51°55' E 004°13'0 0.0
2015-May-25 03:33N 51°55' E 004°13'0 0.0
2015-May-25 02:30N 51°55' E 004°13'0 0.0
2015-May-25 01:30N 51°55' E 004°13'0 0.0
2015-May-25 00:33N 51°55' E 004°13'0 0.0
2015-May-24 23:24N 51°55' E 004°13'0 0.0
2015-May-24 22:30N 51°55' E 004°13'0 0.0
2015-May-24 21:30N 51°55' E 004°13'0 0.0
2015-May-24 20:33N 51°55' E 004°13'0 0.0
2015-May-24 19:27N 51°55' E 004°13'0 0.0
2015-May-24 18:33N 51°55' E 004°13'0 0.0
2015-May-24 17:30N 51°55' E 004°13'0 0.0
2015-May-24 16:30N 51°55' E 004°13'0 0.0
2015-May-24 15:33N 51°55' E 004°13'0 0.0
2015-May-24 14:30N 51°55' E 004°13'0 0.0
2015-May-24 13:33N 51°55' E 004°13'0 0.0
2015-May-24 12:30N 51°55' E 004°13'0 0.0
2015-May-24 11:27N 51°55' E 004°13'0 0.0
2015-May-24 10:33N 51°55' E 004°13'0 0.0
2015-May-24 09:33N 51°55' E 004°13'0 0.0
2015-May-24 08:27N 51°55' E 004°13'0 0.0
2015-May-24 07:15N 51°55' E 004°13'0 0.0
2015-May-24 06:33N 51°55' E 004°13'0 0.0
2015-May-24 05:30N 51°55' E 004°13'0 0.0
2015-May-24 04:33N 51°55' E 004°13'0 0.0
2015-May-24 03:27N 51°55' E 004°13'0 0.0
2015-May-24 02:30N 51°55' E 004°13'0 0.0
2015-May-24 01:30N 51°55' E 004°13'0 0.0
2015-May-24 00:27N 51°55' E 004°13'0 0.0
2015-May-23 23:30N 51°55' E 004°13'0 0.0
2015-May-23 22:33N 51°55' E 004°13'2 1.6
2015-May-23 21:33N 51°56' E 004°11'3 3.3
2015-May-23 20:33N 51°58' E 004°07'8 7.8
2015-May-23 19:33N 52°00' E 003°55'5 4.6
2015-May-23 18:33N 51°59' E 003°47'1110.6
2015-May-23 17:31N 51°56' E 003°31'1 1.4
2015-May-23 16:33N 51°55' E 003°29'0 0.2
2015-May-23 15:24N 51°54' E 003°29'0 0.1
2015-May-23 14:27N 51°54' E 003°29'0 0.0
2015-May-23 13:21N 51°54' E 003°29'0 0.0
2015-May-23 12:27N 51°54' E 003°29'0 0.0
2015-May-23 11:30N 51°54' E 003°29'0 0.0
2015-May-23 09:09N 51°54' E 003°29'0 0.1
2015-May-23 06:21N 51°55' E 003°29'0 0.0
2015-May-23 05:21N 51°55' E 003°29'0 0.0
2015-May-23 03:18N 51°55' E 003°29'0 0.2
2015-May-23 02:09N 51°54' E 003°29'0 0.0
2015-May-23 01:12N 51°54' E 003°29'0 0.0
2015-May-23 00:21N 51°54' E 003°29'0 0.0
2015-May-22 23:33N 51°54' E 003°29'0 0.0
2015-May-22 22:30N 51°54' E 003°29'0 0.2
2015-May-22 21:33N 51°55' E 003°29'0 0.1
2015-May-22 20:33N 51°55' E 003°29'0 0.0
2015-May-22 19:27N 51°55' E 003°29'0 0.4
2015-May-22 18:33N 51°54' E 003°29'5 5.4
2015-May-22 17:33N 51°53' E 003°20'1111.2
2015-May-22 16:33N 51°51' E 003°03'1312.5
2015-May-22 15:31N 51°51' E 002°41'1211.2
2015-May-22 14:25N 52°03' E 002°37'1313.2
2015-May-22 13:24N 52°16' E 002°42'1214.2
2015-May-22 12:33N 52°27' E 002°51'10112.5
2015-May-22 04:29N 53°56' E 004°10'1312.8
2015-May-22 03:29N 54°07' E 004°21'1412.7
2015-May-22 02:23N 54°19' E 004°32'1012.5
2015-May-22 01:33N 54°28' E 004°41'23012.0
2015-May-21 06:20N 57°35' E 008°43'3311.6
2015-May-21 03:32N 57°46' E 009°40'1211.5
2015-May-21 02:32N 57°50' E 010°01'1511.5
2015-May-21 01:16N 57°50' E 010°28'811.4
2015-May-21 00:33N 57°50' E 010°43'1111.0
2015-May-20 23:33N 57°42' E 010°58'1212.1
2015-May-20 22:33N 57°34' E 011°15'1211.7
2015-May-20 21:33N 57°24' E 011°28'1212.3
2015-May-20 20:33N 57°13' E 011°35'1212.1
2015-May-20 19:33N 57°02' E 011°43'1212.0
2015-May-20 18:33N 56°50' E 011°51'1211.2
2015-May-20 17:27N 56°38' E 011°46'11411.4
2015-May-20 07:23N 54°48' E 010°50'1110.1
2015-May-20 06:20N 54°38' E 010°55'911.9
2015-May-20 05:33N 54°36' E 011°11'1212.3
2015-May-20 04:33N 54°31' E 011°30'1312.6
2015-May-20 03:33N 54°27' E 011°51'1211.7
2015-May-20 02:32N 54°27' E 012°11'10 9.4
2015-May-20 01:25N 54°37' E 012°18'6 6.0
2015-May-20 00:20N 54°40' E 012°28'6 6.8
2015-May-19 23:31N 54°43' E 012°36'8 7.7
2015-May-19 22:29N 54°48' E 012°48'4711.8
2015-May-19 18:33N 55°05' E 014°03'1211.9
2015-May-19 17:33N 55°13' E 014°18'1211.9
2015-May-19 16:33N 55°23' E 014°30'1211.6
2015-May-19 15:33N 55°30' E 014°47'1212.0
2015-May-19 14:33N 55°35' E 015°05'1511.9
2015-May-19 13:16N 55°40' E 015°31'34611.5
2015-May-18 07:16N 59°37' E 023°21'912.3
2015-May-18 06:33N 59°40' E 023°38'2512.3
2015-May-18 04:33N 59°47' E 024°25'6412.3
2015-May-17 23:19N 60°01' E 026°30'1012.1
2015-May-17 22:29N 60°00' E 026°50'  

Dump ship's entire track history